Airfield :
LOGIN :

Register | Disclaimer

   EN    FR    IT 

 










Legend :    VFR   Marginal VFR   IFR   Intensive IFR   Very Intensive IFR
Visi :
Ceiling :
>= 8 km
>= 3000ft
5 to 8 km
1000 to 3000 ft
1500m to 5 km
500 to 1000 ft
800 to 1500m
200 to 500 ft
< 800m
< 200 ft
Symbols :   Thunderstorms  Fog  Heavy snow  Heavy precipitations  Wind > 20 kt
SIGMETs :     Misc.  Thunderstorms  Icing  Turbulence  Mountain Waves  Volcanic Ashes







- Airport Elevation : 197 ft
- IATA code : XOG
- Download approach charts


LFMO - Orange

CURRENT METAR :
  • 172100Z AUTO 01006KT CAVOK 07/06 Q1020 NOSIG

EXPIRED METARs :
  • 172030Z AUTO 01008KT CAVOK 08/06 Q1020 NOSIG
  • 172000Z AUTO 01008KT CAVOK 08/06 Q1020 NOSIG
  • 171930Z AUTO 36007KT 9999 FEW056 OVC090 08/07 Q1020 NOSIG
  • 171900Z AUTO 31006KT 270V010 9999 -RA OVC058 08/06 Q1020 NOSIG
  • 171830Z AUTO 35005KT 9999 SCT060 OVC072 08/07 Q1020 NOSIG

TAF TAF LFMO
Valid from the 17 at 21:00 until the 18 at 21:00 UTC


172000Z 1721/1821 36010KT CAVOK
BECMG 1801/1803 VRB02KT
TEMPO 1803/1808 3000 BR
PROB30
TEMPO 1804/1807 0500 FG VV///
TEMPO 1818/1821 35012KT
No reported NOTAMs for that airfield.
2 SIGMETs reported for the Marseille FIR (LFMM) :
 
Severe turbulence
LFMM SIGMET 5 VALID 172100/180100 LFPW
LFMM MARSEILLE FIR/UIR SEV TURB FCST WI N4500 E00700 - N4400 E00700 - N4315 E00945 - N4215 E00815 - N4300 E00530 - N4500 E00615 - N4500 E00700 SFC/FL070 STNR NC=
Embedded thunderstorms
LFMM SIGMET 4 VALID 171800/172200 LFPW
LFMM MARSEILLE FIR/UIR EMBD TS FCST WI N4145 E00945 - N4115 E00945 - N4115 E00800 - N3900 E00800 - N3900 E00615 - N4215 E00730 - N4145 E00945 TOP FL260 STNR NC=



MET'MAP, your aeronautical weather chart ! - Copyright ORBIFLY December 2007 - Disclaimer

ORBIFLY MET'MAP TEAM :

Programming & Development : Alexandra Zaïnal
Concept & Development : Baudouin d'Aumeries
Co-Development & Prog : Marc-Olivier Méhu
Technical & hardware support : Manuel Goepfert

Contact : metmap@orbifly.com




SOURCES & CREDITS :

   NOAA